sensor_id;sensor_type;location;lat;lon;timestamp;P1;durP1;ratioP1;P2;durP2;ratioP2
75916;SDS011;64595;50.148;14.334;2024-02-16T00:00:17;55.05;;;27.92;;
75916;SDS011;64595;50.148;14.334;2024-02-16T00:02:43;45.30;;;25.85;;
75916;SDS011;64595;50.148;14.334;2024-02-16T00:05:08;45.58;;;28.00;;
75916;SDS011;64595;50.148;14.334;2024-02-16T00:07:34;53.92;;;26.63;;
75916;SDS011;64595;50.148;14.334;2024-02-16T00:10:00;54.72;;;27.50;;
75916;SDS011;64595;50.148;14.334;2024-02-16T00:12:25;54.72;;;28.73;;
75916;SDS011;64595;50.148;14.334;2024-02-16T00:14:52;49.75;;;26.13;;
75916;SDS011;64595;50.148;14.334;2024-02-16T00:17:17;50.35;;;28.42;;
75916;SDS011;64595;50.148;14.334;2024-02-16T00:19:43;52.05;;;26.85;;
75916;SDS011;64595;50.148;14.334;2024-02-16T00:22:08;57.80;;;28.20;;
75916;SDS011;64595;50.148;14.334;2024-02-16T00:24:34;53.85;;;27.92;;
75916;SDS011;64595;50.148;14.334;2024-02-16T00:26:59;48.30;;;26.00;;
75916;SDS011;64595;50.148;14.334;2024-02-16T00:29:25;50.58;;;28.10;;
75916;SDS011;64595;50.148;14.334;2024-02-16T00:31:52;43.28;;;26.55;;
75916;SDS011;64595;50.148;14.334;2024-02-16T00:34:17;47.30;;;25.73;;
75916;SDS011;64595;50.148;14.334;2024-02-16T00:36:43;44.15;;;23.90;;
75916;SDS011;64595;50.148;14.334;2024-02-16T00:39:08;45.95;;;23.75;;
75916;SDS011;64595;50.148;14.334;2024-02-16T00:41:34;46.45;;;25.17;;
75916;SDS011;64595;50.148;14.334;2024-02-16T00:43:59;52.55;;;25.30;;
75916;SDS011;64595;50.148;14.334;2024-02-16T00:46:24;45.05;;;25.23;;
75916;SDS011;64595;50.148;14.334;2024-02-16T00:51:18;43.65;;;24.02;;
75916;SDS011;64595;50.148;14.334;2024-02-16T00:53:44;44.15;;;25.10;;
75916;SDS011;64595;50.148;14.334;2024-02-16T00:56:09;43.95;;;25.15;;
75916;SDS011;64595;50.148;14.334;2024-02-16T00:58:35;41.38;;;23.80;;
75916;SDS011;64595;50.148;14.334;2024-02-16T01:01:00;36.05;;;23.00;;
75916;SDS011;64595;50.148;14.334;2024-02-16T01:03:25;43.47;;;24.40;;
75916;SDS011;64595;50.148;14.334;2024-02-16T01:05:52;39.85;;;22.33;;
75916;SDS011;64595;50.148;14.334;2024-02-16T01:08:18;41.20;;;22.75;;
75916;SDS011;64595;50.148;14.334;2024-02-16T01:10:43;44.33;;;24.00;;
75916;SDS011;64595;50.148;14.334;2024-02-16T01:13:09;45.85;;;24.75;;
75916;SDS011;64595;50.148;14.334;2024-02-16T01:15:34;49.28;;;27.20;;
75916;SDS011;64595;50.148;14.334;2024-02-16T01:18:00;50.95;;;25.40;;
75916;SDS011;64595;50.148;14.334;2024-02-16T01:20:25;44.70;;;24.17;;
75916;SDS011;64595;50.148;14.334;2024-02-16T01:22:52;46.63;;;25.35;;
75916;SDS011;64595;50.148;14.334;2024-02-16T01:25:17;45.83;;;26.27;;
75916;SDS011;64595;50.148;14.334;2024-02-16T01:27:43;47.83;;;24.67;;
75916;SDS011;64595;50.148;14.334;2024-02-16T01:30:09;44.00;;;24.80;;
75916;SDS011;64595;50.148;14.334;2024-02-16T01:32:35;40.25;;;21.80;;
75916;SDS011;64595;50.148;14.334;2024-02-16T01:35:00;39.10;;;21.33;;
75916;SDS011;64595;50.148;14.334;2024-02-16T01:37:26;41.78;;;22.65;;
75916;SDS011;64595;50.148;14.334;2024-02-16T01:39:53;44.03;;;23.90;;
75916;SDS011;64595;50.148;14.334;2024-02-16T01:42:18;42.63;;;22.70;;
75916;SDS011;64595;50.148;14.334;2024-02-16T01:44:44;36.88;;;22.23;;
75916;SDS011;64595;50.148;14.334;2024-02-16T01:47:09;40.03;;;21.83;;
75916;SDS011;64595;50.148;14.334;2024-02-16T01:49:34;44.75;;;24.00;;
75916;SDS011;64595;50.148;14.334;2024-02-16T01:52:00;39.72;;;21.45;;
75916;SDS011;64595;50.148;14.334;2024-02-16T01:54:26;32.55;;;19.63;;
75916;SDS011;64595;50.148;14.334;2024-02-16T01:56:53;34.63;;;20.20;;
75916;SDS011;64595;50.148;14.334;2024-02-16T01:59:19;32.22;;;18.58;;
75916;SDS011;64595;50.148;14.334;2024-02-16T02:01:45;32.17;;;19.52;;
75916;SDS011;64595;50.148;14.334;2024-02-16T02:04:10;42.50;;;22.67;;
75916;SDS011;64595;50.148;14.334;2024-02-16T02:06:36;36.20;;;22.10;;
75916;SDS011;64595;50.148;14.334;2024-02-16T02:09:01;36.33;;;21.20;;
75916;SDS011;64595;50.148;14.334;2024-02-16T02:11:27;41.55;;;21.67;;
75916;SDS011;64595;50.148;14.334;2024-02-16T02:13:53;60.35;;;27.08;;
75916;SDS011;64595;50.148;14.334;2024-02-16T02:16:19;56.45;;;25.63;;
75916;SDS011;64595;50.148;14.334;2024-02-16T02:18:46;45.92;;;23.52;;
75916;SDS011;64595;50.148;14.334;2024-02-16T02:21:11;48.08;;;24.52;;
75916;SDS011;64595;50.148;14.334;2024-02-16T02:23:38;44.65;;;24.70;;
75916;SDS011;64595;50.148;14.334;2024-02-16T02:26:03;49.65;;;26.00;;
75916;SDS011;64595;50.148;14.334;2024-02-16T02:28:29;58.95;;;28.85;;
75916;SDS011;64595;50.148;14.334;2024-02-16T02:30:54;68.38;;;28.17;;
75916;SDS011;64595;50.148;14.334;2024-02-16T02:33:20;59.88;;;28.33;;
75916;SDS011;64595;50.148;14.334;2024-02-16T02:35:45;63.15;;;26.63;;
75916;SDS011;64595;50.148;14.334;2024-02-16T02:38:11;61.35;;;26.80;;
75916;SDS011;64595;50.148;14.334;2024-02-16T02:40:38;62.00;;;24.80;;
75916;SDS011;64595;50.148;14.334;2024-02-16T02:43:03;74.30;;;28.10;;
75916;SDS011;64595;50.148;14.334;2024-02-16T02:45:29;64.88;;;25.40;;
75916;SDS011;64595;50.148;14.334;2024-02-16T02:47:54;73.40;;;27.05;;
75916;SDS011;64595;50.148;14.334;2024-02-16T02:50:20;73.47;;;26.20;;
75916;SDS011;64595;50.148;14.334;2024-02-16T02:52:45;76.88;;;25.77;;
75916;SDS011;64595;50.148;14.334;2024-02-16T02:55:11;90.53;;;30.17;;
75916;SDS011;64595;50.148;14.334;2024-02-16T02:57:37;77.10;;;30.30;;
75916;SDS011;64595;50.148;14.334;2024-02-16T03:00:03;77.10;;;31.02;;
75916;SDS011;64595;50.148;14.334;2024-02-16T03:02:29;97.93;;;30.60;;
75916;SDS011;64595;50.148;14.334;2024-02-16T03:04:55;87.82;;;32.72;;
75916;SDS011;64595;50.148;14.334;2024-02-16T03:07:22;86.13;;;32.53;;
75916;SDS011;64595;50.148;14.334;2024-02-16T03:09:47;87.95;;;31.73;;
75916;SDS011;64595;50.148;14.334;2024-02-16T03:12:13;76.88;;;30.15;;
75916;SDS011;64595;50.148;14.334;2024-02-16T03:14:39;96.38;;;31.20;;
75916;SDS011;64595;50.148;14.334;2024-02-16T03:17:05;68.45;;;23.33;;
75916;SDS011;64595;50.148;14.334;2024-02-16T03:19:30;80.80;;;25.38;;
75916;SDS011;64595;50.148;14.334;2024-02-16T03:21:56;84.20;;;26.33;;
75916;SDS011;64595;50.148;14.334;2024-02-16T03:24:21;113.50;;;30.63;;
75916;SDS011;64595;50.148;14.334;2024-02-16T03:26:47;103.15;;;30.17;;
75916;SDS011;64595;50.148;14.334;2024-02-16T03:29:12;97.93;;;29.83;;
75916;SDS011;64595;50.148;14.334;2024-02-16T03:31:39;106.55;;;31.90;;
75916;SDS011;64595;50.148;14.334;2024-02-16T03:34:05;99.05;;;32.40;;
75916;SDS011;64595;50.148;14.334;2024-02-16T03:36:30;95.55;;;30.48;;
75916;SDS011;64595;50.148;14.334;2024-02-16T03:38:56;100.55;;;30.83;;
75916;SDS011;64595;50.148;14.334;2024-02-16T03:41:21;59.40;;;23.83;;
75916;SDS011;64595;50.148;14.334;2024-02-16T03:43:47;74.78;;;22.13;;
75916;SDS011;64595;50.148;14.334;2024-02-16T03:46:13;55.65;;;22.10;;
75916;SDS011;64595;50.148;14.334;2024-02-16T03:48:40;79.18;;;22.73;;
75916;SDS011;64595;50.148;14.334;2024-02-16T03:51:05;98.95;;;27.05;;
75916;SDS011;64595;50.148;14.334;2024-02-16T03:53:31;63.63;;;25.05;;
75916;SDS011;64595;50.148;14.334;2024-02-16T03:55:56;97.57;;;30.40;;
75916;SDS011;64595;50.148;14.334;2024-02-16T03:58:22;93.32;;;28.73;;
75916;SDS011;64595;50.148;14.334;2024-02-16T04:00:47;91.07;;;27.73;;
75916;SDS011;64595;50.148;14.334;2024-02-16T04:03:13;73.22;;;22.60;;
75916;SDS011;64595;50.148;14.334;2024-02-16T04:05:39;69.32;;;22.63;;
75916;SDS011;64595;50.148;14.334;2024-02-16T04:08:05;79.97;;;23.27;;
75916;SDS011;64595;50.148;14.334;2024-02-16T04:10:31;125.15;;;26.92;;
75916;SDS011;64595;50.148;14.334;2024-02-16T04:12:56;149.43;;;29.75;;
75916;SDS011;64595;50.148;14.334;2024-02-16T04:15:22;112.72;;;31.58;;
75916;SDS011;64595;50.148;14.334;2024-02-16T04:17:47;100.32;;;27.95;;
75916;SDS011;64595;50.148;14.334;2024-02-16T04:20:14;91.07;;;26.10;;
75916;SDS011;64595;50.148;14.334;2024-02-16T04:22:41;78.57;;;25.73;;
75916;SDS011;64595;50.148;14.334;2024-02-16T04:25:07;76.20;;;23.85;;
75916;SDS011;64595;50.148;14.334;2024-02-16T04:27:32;71.53;;;23.25;;
75916;SDS011;64595;50.148;14.334;2024-02-16T04:29:58;69.30;;;23.30;;
75916;SDS011;64595;50.148;14.334;2024-02-16T04:32:23;62.13;;;19.98;;
75916;SDS011;64595;50.148;14.334;2024-02-16T04:34:49;61.90;;;20.15;;
75916;SDS011;64595;50.148;14.334;2024-02-16T04:37:14;54.85;;;20.52;;
75916;SDS011;64595;50.148;14.334;2024-02-16T04:39:41;45.83;;;19.55;;
75916;SDS011;64595;50.148;14.334;2024-02-16T04:42:06;67.50;;;20.17;;
75916;SDS011;64595;50.148;14.334;2024-02-16T04:44:32;55.47;;;19.40;;
75916;SDS011;64595;50.148;14.334;2024-02-16T04:46:57;56.10;;;20.50;;
75916;SDS011;64595;50.148;14.334;2024-02-16T04:49:23;53.42;;;20.67;;
75916;SDS011;64595;50.148;14.334;2024-02-16T04:51:48;52.38;;;19.60;;
75916;SDS011;64595;50.148;14.334;2024-02-16T04:54:14;43.40;;;20.60;;
75916;SDS011;64595;50.148;14.334;2024-02-16T04:56:40;42.60;;;20.55;;
75916;SDS011;64595;50.148;14.334;2024-02-16T04:59:06;53.55;;;22.17;;
75916;SDS011;64595;50.148;14.334;2024-02-16T05:01:31;48.35;;;22.02;;
75916;SDS011;64595;50.148;14.334;2024-02-16T05:03:57;46.45;;;18.80;;
75916;SDS011;64595;50.148;14.334;2024-02-16T05:06:23;46.60;;;19.65;;
75916;SDS011;64595;50.148;14.334;2024-02-16T05:08:48;44.55;;;19.02;;
75916;SDS011;64595;50.148;14.334;2024-02-16T05:11:14;41.45;;;17.83;;
75916;SDS011;64595;50.148;14.334;2024-02-16T05:13:40;40.42;;;18.60;;
75916;SDS011;64595;50.148;14.334;2024-02-16T05:16:07;34.28;;;16.08;;
75916;SDS011;64595;50.148;14.334;2024-02-16T05:18:33;37.25;;;17.85;;
75916;SDS011;64595;50.148;14.334;2024-02-16T05:20:59;35.42;;;17.42;;
75916;SDS011;64595;50.148;14.334;2024-02-16T05:23:24;40.88;;;17.70;;
75916;SDS011;64595;50.148;14.334;2024-02-16T05:25:50;39.08;;;20.10;;
75916;SDS011;64595;50.148;14.334;2024-02-16T05:28:15;40.50;;;20.38;;
75916;SDS011;64595;50.148;14.334;2024-02-16T05:30:42;39.78;;;17.88;;
75916;SDS011;64595;50.148;14.334;2024-02-16T05:33:08;43.22;;;18.17;;
75916;SDS011;64595;50.148;14.334;2024-02-16T05:35:33;32.60;;;16.75;;
75916;SDS011;64595;50.148;14.334;2024-02-16T05:37:59;33.35;;;16.90;;
75916;SDS011;64595;50.148;14.334;2024-02-16T05:40:24;36.38;;;16.40;;
75916;SDS011;64595;50.148;14.334;2024-02-16T05:42:50;36.55;;;17.95;;
75916;SDS011;64595;50.148;14.334;2024-02-16T05:45:16;39.67;;;17.75;;
75916;SDS011;64595;50.148;14.334;2024-02-16T05:47:44;37.28;;;17.83;;
75916;SDS011;64595;50.148;14.334;2024-02-16T05:50:10;34.92;;;17.33;;
75916;SDS011;64595;50.148;14.334;2024-02-16T05:52:35;32.08;;;16.15;;
75916;SDS011;64595;50.148;14.334;2024-02-16T05:55:01;36.15;;;16.75;;
75916;SDS011;64595;50.148;14.334;2024-02-16T05:57:26;32.45;;;16.23;;
75916;SDS011;64595;50.148;14.334;2024-02-16T05:59:52;35.13;;;17.05;;
75916;SDS011;64595;50.148;14.334;2024-02-16T06:02:17;39.40;;;17.88;;
75916;SDS011;64595;50.148;14.334;2024-02-16T06:04:44;38.88;;;19.65;;
75916;SDS011;64595;50.148;14.334;2024-02-16T06:07:10;40.60;;;19.73;;
75916;SDS011;64595;50.148;14.334;2024-02-16T06:09:36;40.13;;;17.90;;
75916;SDS011;64595;50.148;14.334;2024-02-16T06:12:02;36.05;;;17.67;;
75916;SDS011;64595;50.148;14.334;2024-02-16T06:14:28;32.88;;;16.70;;
75916;SDS011;64595;50.148;14.334;2024-02-16T06:16:53;38.15;;;18.25;;
75916;SDS011;64595;50.148;14.334;2024-02-16T06:19:19;43.72;;;18.70;;
75916;SDS011;64595;50.148;14.334;2024-02-16T06:21:46;36.25;;;18.38;;
75916;SDS011;64595;50.148;14.334;2024-02-16T06:24:11;35.30;;;16.05;;
75916;SDS011;64595;50.148;14.334;2024-02-16T06:26:37;37.08;;;17.80;;
75916;SDS011;64595;50.148;14.334;2024-02-16T06:29:02;35.10;;;17.35;;
75916;SDS011;64595;50.148;14.334;2024-02-16T06:31:27;35.30;;;16.60;;
75916;SDS011;64595;50.148;14.334;2024-02-16T06:33:53;32.95;;;17.75;;
75916;SDS011;64595;50.148;14.334;2024-02-16T06:36:19;40.42;;;19.42;;
75916;SDS011;64595;50.148;14.334;2024-02-16T06:38:45;44.50;;;20.10;;
75916;SDS011;64595;50.148;14.334;2024-02-16T06:41:12;40.45;;;20.02;;
75916;SDS011;64595;50.148;14.334;2024-02-16T06:43:37;40.58;;;20.75;;
75916;SDS011;64595;50.148;14.334;2024-02-16T06:46:03;40.00;;;19.80;;
75916;SDS011;64595;50.148;14.334;2024-02-16T06:48:29;47.45;;;19.83;;
75916;SDS011;64595;50.148;14.334;2024-02-16T06:50:54;41.50;;;20.13;;
75916;SDS011;64595;50.148;14.334;2024-02-16T06:53:19;53.17;;;22.23;;
75916;SDS011;64595;50.148;14.334;2024-02-16T06:55:46;47.90;;;21.58;;
75916;SDS011;64595;50.148;14.334;2024-02-16T06:58:12;47.03;;;22.95;;
75916;SDS011;64595;50.148;14.334;2024-02-16T07:00:37;57.33;;;23.23;;
75916;SDS011;64595;50.148;14.334;2024-02-16T07:03:03;49.03;;;21.95;;
75916;SDS011;64595;50.148;14.334;2024-02-16T07:05:29;49.72;;;23.58;;
75916;SDS011;64595;50.148;14.334;2024-02-16T07:07:54;52.47;;;22.08;;
75916;SDS011;64595;50.148;14.334;2024-02-16T07:10:20;46.08;;;20.90;;
75916;SDS011;64595;50.148;14.334;2024-02-16T07:12:47;45.85;;;21.95;;
75916;SDS011;64595;50.148;14.334;2024-02-16T07:15:12;44.40;;;20.42;;
75916;SDS011;64595;50.148;14.334;2024-02-16T07:17:38;42.15;;;21.23;;
75916;SDS011;64595;50.148;14.334;2024-02-16T07:20:03;35.40;;;19.38;;
75916;SDS011;64595;50.148;14.334;2024-02-16T07:22:30;53.45;;;25.33;;
75916;SDS011;64595;50.148;14.334;2024-02-16T07:24:56;51.53;;;24.40;;
75916;SDS011;64595;50.148;14.334;2024-02-16T07:27:21;49.38;;;24.70;;
75916;SDS011;64595;50.148;14.334;2024-02-16T07:29:48;50.05;;;23.27;;
75916;SDS011;64595;50.148;14.334;2024-02-16T07:32:15;53.28;;;23.80;;
75916;SDS011;64595;50.148;14.334;2024-02-16T07:34:41;49.45;;;23.15;;
75916;SDS011;64595;50.148;14.334;2024-02-16T07:37:13;42.88;;;21.35;;
75916;SDS011;64595;50.148;14.334;2024-02-16T07:39:39;48.63;;;23.75;;
75916;SDS011;64595;50.148;14.334;2024-02-16T07:42:04;45.08;;;23.77;;
75916;SDS011;64595;50.148;14.334;2024-02-16T07:44:30;39.58;;;20.27;;
75916;SDS011;64595;50.148;14.334;2024-02-16T07:46:57;48.60;;;24.33;;
75916;SDS011;64595;50.148;14.334;2024-02-16T07:49:23;49.15;;;23.38;;
75916;SDS011;64595;50.148;14.334;2024-02-16T07:51:48;45.22;;;23.00;;
75916;SDS011;64595;50.148;14.334;2024-02-16T07:54:14;56.15;;;24.85;;
75916;SDS011;64595;50.148;14.334;2024-02-16T07:56:39;52.75;;;24.60;;
75916;SDS011;64595;50.148;14.334;2024-02-16T07:59:05;54.97;;;24.88;;
75916;SDS011;64595;50.148;14.334;2024-02-16T08:01:30;51.70;;;26.05;;
75916;SDS011;64595;50.148;14.334;2024-02-16T08:03:57;50.97;;;25.35;;
75916;SDS011;64595;50.148;14.334;2024-02-16T08:06:24;50.45;;;24.50;;
75916;SDS011;64595;50.148;14.334;2024-02-16T08:08:50;49.70;;;25.48;;
75916;SDS011;64595;50.148;14.334;2024-02-16T08:11:15;54.65;;;25.45;;
75916;SDS011;64595;50.148;14.334;2024-02-16T08:13:41;52.80;;;23.75;;
75916;SDS011;64595;50.148;14.334;2024-02-16T08:16:06;58.95;;;27.05;;
75916;SDS011;64595;50.148;14.334;2024-02-16T08:18:32;60.53;;;27.55;;
75916;SDS011;64595;50.148;14.334;2024-02-16T08:20:59;57.28;;;25.10;;
75916;SDS011;64595;50.148;14.334;2024-02-16T08:23:24;54.72;;;26.08;;
75916;SDS011;64595;50.148;14.334;2024-02-16T08:25:50;50.65;;;23.55;;
75916;SDS011;64595;50.148;14.334;2024-02-16T08:28:15;50.25;;;23.95;;
75916;SDS011;64595;50.148;14.334;2024-02-16T08:30:42;50.63;;;22.83;;
75916;SDS011;64595;50.148;14.334;2024-02-16T08:33:10;49.10;;;22.65;;
75916;SDS011;64595;50.148;14.334;2024-02-16T08:35:35;47.88;;;22.73;;
75916;SDS011;64595;50.148;14.334;2024-02-16T08:38:02;46.67;;;22.02;;
75916;SDS011;64595;50.148;14.334;2024-02-16T08:40:28;42.00;;;21.35;;
75916;SDS011;64595;50.148;14.334;2024-02-16T08:42:53;46.60;;;23.75;;
75916;SDS011;64595;50.148;14.334;2024-02-16T08:45:19;39.28;;;20.90;;
75916;SDS011;64595;50.148;14.334;2024-02-16T08:47:44;47.22;;;23.45;;
75916;SDS011;64595;50.148;14.334;2024-02-16T08:50:10;40.67;;;22.08;;
75916;SDS011;64595;50.148;14.334;2024-02-16T08:52:35;39.33;;;22.00;;
75916;SDS011;64595;50.148;14.334;2024-02-16T08:55:02;34.15;;;19.88;;
75916;SDS011;64595;50.148;14.334;2024-02-16T08:57:29;42.03;;;20.45;;
75916;SDS011;64595;50.148;14.334;2024-02-16T09:00:00;38.72;;;19.75;;
75916;SDS011;64595;50.148;14.334;2024-02-16T09:02:25;36.53;;;19.95;;
75916;SDS011;64595;50.148;14.334;2024-02-16T09:04:58;36.35;;;19.90;;
75916;SDS011;64595;50.148;14.334;2024-02-16T09:07:24;40.75;;;20.40;;
75916;SDS011;64595;50.148;14.334;2024-02-16T09:09:49;37.88;;;20.08;;
75916;SDS011;64595;50.148;14.334;2024-02-16T09:12:16;37.25;;;20.63;;
75916;SDS011;64595;50.148;14.334;2024-02-16T09:14:41;37.35;;;19.73;;
75916;SDS011;64595;50.148;14.334;2024-02-16T09:17:07;35.83;;;19.17;;
75916;SDS011;64595;50.148;14.334;2024-02-16T09:19:33;36.45;;;19.55;;
75916;SDS011;64595;50.148;14.334;2024-02-16T09:21:59;36.22;;;18.50;;
75916;SDS011;64595;50.148;14.334;2024-02-16T09:24:24;35.63;;;19.30;;
75916;SDS011;64595;50.148;14.334;2024-02-16T09:26:50;35.47;;;18.63;;
75916;SDS011;64595;50.148;14.334;2024-02-16T09:29:17;35.45;;;19.48;;
75916;SDS011;64595;50.148;14.334;2024-02-16T09:31:42;32.33;;;17.40;;
75916;SDS011;64595;50.148;14.334;2024-02-16T09:34:08;38.28;;;19.70;;
75916;SDS011;64595;50.148;14.334;2024-02-16T09:36:34;32.55;;;18.48;;
75916;SDS011;64595;50.148;14.334;2024-02-16T09:38:59;30.80;;;17.23;;
75916;SDS011;64595;50.148;14.334;2024-02-16T09:41:26;36.25;;;19.23;;
75916;SDS011;64595;50.148;14.334;2024-02-16T09:43:52;29.75;;;17.83;;
75916;SDS011;64595;50.148;14.334;2024-02-16T09:46:19;32.05;;;17.38;;
75916;SDS011;64595;50.148;14.334;2024-02-16T09:48:46;29.35;;;17.15;;
75916;SDS011;64595;50.148;14.334;2024-02-16T09:51:13;31.55;;;18.15;;
75916;SDS011;64595;50.148;14.334;2024-02-16T09:53:38;31.35;;;18.23;;
75916;SDS011;64595;50.148;14.334;2024-02-16T09:56:05;32.33;;;18.23;;
75916;SDS011;64595;50.148;14.334;2024-02-16T09:58:30;32.67;;;18.00;;
75916;SDS011;64595;50.148;14.334;2024-02-16T10:00:56;27.92;;;17.05;;
75916;SDS011;64595;50.148;14.334;2024-02-16T10:03:26;29.40;;;17.10;;
75916;SDS011;64595;50.148;14.334;2024-02-16T10:05:52;30.02;;;18.38;;
75916;SDS011;64595;50.148;14.334;2024-02-16T10:08:28;35.80;;;18.27;;
75916;SDS011;64595;50.148;14.334;2024-02-16T10:11:00;31.13;;;18.20;;
75916;SDS011;64595;50.148;14.334;2024-02-16T10:13:25;26.70;;;16.77;;
75916;SDS011;64595;50.148;14.334;2024-02-16T10:15:51;28.98;;;16.90;;
75916;SDS011;64595;50.148;14.334;2024-02-16T10:18:18;29.85;;;17.13;;
75916;SDS011;64595;50.148;14.334;2024-02-16T10:20:45;34.00;;;18.13;;
75916;SDS011;64595;50.148;14.334;2024-02-16T10:23:11;21.02;;;13.00;;
75916;SDS011;64595;50.148;14.334;2024-02-16T10:25:37;29.73;;;17.05;;
75916;SDS011;64595;50.148;14.334;2024-02-16T10:28:04;30.52;;;17.95;;
75916;SDS011;64595;50.148;14.334;2024-02-16T10:30:30;30.17;;;16.58;;
75916;SDS011;64595;50.148;14.334;2024-02-16T10:32:56;29.15;;;17.33;;
75916;SDS011;64595;50.148;14.334;2024-02-16T10:35:22;28.08;;;16.52;;
75916;SDS011;64595;50.148;14.334;2024-02-16T10:37:50;28.98;;;17.88;;
75916;SDS011;64595;50.148;14.334;2024-02-16T10:42:43;26.80;;;16.48;;
75916;SDS011;64595;50.148;14.334;2024-02-16T10:45:11;27.70;;;16.27;;
75916;SDS011;64595;50.148;14.334;2024-02-16T10:47:36;28.40;;;16.17;;
75916;SDS011;64595;50.148;14.334;2024-02-16T10:50:02;31.10;;;17.33;;
75916;SDS011;64595;50.148;14.334;2024-02-16T10:52:29;31.73;;;18.73;;
75916;SDS011;64595;50.148;14.334;2024-02-16T10:54:57;30.35;;;17.67;;
75916;SDS011;64595;50.148;14.334;2024-02-16T10:57:23;27.08;;;16.58;;
75916;SDS011;64595;50.148;14.334;2024-02-16T10:59:52;25.50;;;15.95;;
75916;SDS011;64595;50.148;14.334;2024-02-16T11:02:18;27.65;;;17.50;;
75916;SDS011;64595;50.148;14.334;2024-02-16T11:04:45;37.20;;;20.20;;
75916;SDS011;64595;50.148;14.334;2024-02-16T11:07:12;24.50;;;15.73;;
75916;SDS011;64595;50.148;14.334;2024-02-16T11:09:40;30.48;;;17.73;;
75916;SDS011;64595;50.148;14.334;2024-02-16T11:12:07;27.27;;;16.58;;
75916;SDS011;64595;50.148;14.334;2024-02-16T11:14:34;23.02;;;15.07;;
75916;SDS011;64595;50.148;14.334;2024-02-16T11:16:59;26.92;;;16.02;;
75916;SDS011;64595;50.148;14.334;2024-02-16T11:19:25;24.05;;;14.88;;
75916;SDS011;64595;50.148;14.334;2024-02-16T11:21:56;22.92;;;14.20;;
75916;SDS011;64595;50.148;14.334;2024-02-16T11:24:27;22.02;;;14.75;;
75916;SDS011;64595;50.148;14.334;2024-02-16T11:26:55;22.35;;;14.68;;
75916;SDS011;64595;50.148;14.334;2024-02-16T11:29:22;21.02;;;14.32;;
75916;SDS011;64595;50.148;14.334;2024-02-16T11:31:47;21.35;;;14.68;;
75916;SDS011;64595;50.148;14.334;2024-02-16T11:34:20;21.95;;;14.57;;
75916;SDS011;64595;50.148;14.334;2024-02-16T11:36:47;20.02;;;14.10;;
75916;SDS011;64595;50.148;14.334;2024-02-16T11:39:12;20.27;;;14.60;;
75916;SDS011;64595;50.148;14.334;2024-02-16T11:41:39;19.98;;;14.70;;
75916;SDS011;64595;50.148;14.334;2024-02-16T11:44:12;19.73;;;13.90;;
75916;SDS011;64595;50.148;14.334;2024-02-16T11:46:39;23.88;;;14.68;;
75916;SDS011;64595;50.148;14.334;2024-02-16T11:49:05;22.73;;;15.20;;
75916;SDS011;64595;50.148;14.334;2024-02-16T11:51:31;23.00;;;15.20;;
75916;SDS011;64595;50.148;14.334;2024-02-16T11:53:57;20.92;;;14.80;;
75916;SDS011;64595;50.148;14.334;2024-02-16T11:56:24;21.13;;;15.05;;
75916;SDS011;64595;50.148;14.334;2024-02-16T11:58:50;23.05;;;16.27;;
75916;SDS011;64595;50.148;14.334;2024-02-16T12:01:15;19.40;;;14.18;;
75916;SDS011;64595;50.148;14.334;2024-02-16T12:03:43;20.88;;;16.20;;
75916;SDS011;64595;50.148;14.334;2024-02-16T12:06:08;20.58;;;15.00;;
75916;SDS011;64595;50.148;14.334;2024-02-16T12:08:34;22.92;;;17.45;;
75916;SDS011;64595;50.148;14.334;2024-02-16T12:11:01;21.77;;;15.30;;
75916;SDS011;64595;50.148;14.334;2024-02-16T12:13:27;20.60;;;15.25;;
75916;SDS011;64595;50.148;14.334;2024-02-16T12:15:53;21.67;;;15.75;;
75916;SDS011;64595;50.148;14.334;2024-02-16T12:18:19;22.88;;;15.65;;
75916;SDS011;64595;50.148;14.334;2024-02-16T12:20:46;21.80;;;15.57;;
75916;SDS011;64595;50.148;14.334;2024-02-16T12:23:21;20.02;;;14.10;;
75916;SDS011;64595;50.148;14.334;2024-02-16T12:25:47;22.35;;;14.85;;
75916;SDS011;64595;50.148;14.334;2024-02-16T12:28:12;22.75;;;15.27;;
75916;SDS011;64595;50.148;14.334;2024-02-16T12:30:38;24.10;;;14.88;;
75916;SDS011;64595;50.148;14.334;2024-02-16T12:33:03;23.48;;;14.98;;
75916;SDS011;64595;50.148;14.334;2024-02-16T12:35:29;29.55;;;16.05;;
75916;SDS011;64595;50.148;14.334;2024-02-16T12:37:56;23.42;;;15.73;;
75916;SDS011;64595;50.148;14.334;2024-02-16T12:40:21;24.63;;;16.42;;
75916;SDS011;64595;50.148;14.334;2024-02-16T12:42:47;21.98;;;15.55;;
75916;SDS011;64595;50.148;14.334;2024-02-16T12:45:12;22.80;;;15.70;;
75916;SDS011;64595;50.148;14.334;2024-02-16T12:47:38;21.98;;;15.55;;
75916;SDS011;64595;50.148;14.334;2024-02-16T12:50:03;22.60;;;16.15;;
75916;SDS011;64595;50.148;14.334;2024-02-16T12:52:30;23.73;;;14.70;;
75916;SDS011;64595;50.148;14.334;2024-02-16T12:54:57;21.95;;;15.38;;
75916;SDS011;64595;50.148;14.334;2024-02-16T12:57:22;22.48;;;14.45;;
75916;SDS011;64595;50.148;14.334;2024-02-16T12:59:48;22.52;;;15.90;;
75916;SDS011;64595;50.148;14.334;2024-02-16T13:02:14;22.88;;;16.30;;
75916;SDS011;64595;50.148;14.334;2024-02-16T13:04:39;21.77;;;15.70;;
75916;SDS011;64595;50.148;14.334;2024-02-16T13:07:05;23.75;;;15.63;;
75916;SDS011;64595;50.148;14.334;2024-02-16T13:09:30;24.88;;;16.10;;
75916;SDS011;64595;50.148;14.334;2024-02-16T13:11:57;22.40;;;16.80;;
75916;SDS011;64595;50.148;14.334;2024-02-16T13:14:23;20.88;;;16.92;;
75916;SDS011;64595;50.148;14.334;2024-02-16T13:16:49;23.35;;;16.98;;
75916;SDS011;64595;50.148;14.334;2024-02-16T13:19:14;23.85;;;17.20;;
75916;SDS011;64595;50.148;14.334;2024-02-16T13:21:40;28.85;;;20.27;;
75916;SDS011;64595;50.148;14.334;2024-02-16T13:24:05;23.70;;;19.23;;
75916;SDS011;64595;50.148;14.334;2024-02-16T13:26:31;22.05;;;17.20;;
75916;SDS011;64595;50.148;14.334;2024-02-16T13:28:58;25.50;;;18.77;;
75916;SDS011;64595;50.148;14.334;2024-02-16T13:31:24;25.98;;;17.48;;
75916;SDS011;64595;50.148;14.334;2024-02-16T13:33:49;22.02;;;16.80;;
75916;SDS011;64595;50.148;14.334;2024-02-16T13:36:14;21.48;;;16.38;;
75916;SDS011;64595;50.148;14.334;2024-02-16T13:38:40;22.05;;;15.50;;
75916;SDS011;64595;50.148;14.334;2024-02-16T13:41:05;25.35;;;15.98;;
75916;SDS011;64595;50.148;14.334;2024-02-16T13:43:31;23.60;;;17.52;;
75916;SDS011;64595;50.148;14.334;2024-02-16T13:45:58;28.23;;;18.67;;
75916;SDS011;64595;50.148;14.334;2024-02-16T13:48:23;22.45;;;18.17;;
75916;SDS011;64595;50.148;14.334;2024-02-16T13:50:49;24.27;;;16.42;;
75916;SDS011;64595;50.148;14.334;2024-02-16T13:53:15;25.33;;;16.70;;
75916;SDS011;64595;50.148;14.334;2024-02-16T13:55:41;22.13;;;16.33;;
75916;SDS011;64595;50.148;14.334;2024-02-16T13:58:07;22.20;;;16.30;;
75916;SDS011;64595;50.148;14.334;2024-02-16T14:00:32;19.65;;;14.90;;
75916;SDS011;64595;50.148;14.334;2024-02-16T14:02:59;22.13;;;17.08;;
75916;SDS011;64595;50.148;14.334;2024-02-16T14:05:25;22.85;;;17.08;;